Time;durP1;ratioP1;P1;durP2;ratioP2;P2;SDS_P1;SDS_P2;PMS_P1;PMS_P2;Temp;Humidity;BMP_temperature;BMP_pressure;BME280_temperature;BME280_humidity;BME280_pressure;Samples;Min_cycle;Max_cycle;Signal;HPM_P1;HPM_P2
2022/05/08 00:02:01;;;;;;;8.45;4.60;;;;;;;;;;4950186;28;20517;-64
2022/05/08 00:04:26;;;;;;;10.32;5.00;;;;;;;;;;4932670;28;20552;-63
2022/05/08 00:06:52;;;;;;;8.85;4.65;;;;;;;;;;4950096;28;20030;-63
2022/05/08 00:09:18;;;;;;;11.57;6.03;;;;;;;;;;4949850;28;20531;-63
2022/05/08 00:11:43;;;;;;;6.65;4.70;;;;;;;;;;4949834;28;20443;-63
2022/05/08 00:14:08;;;;;;;9.05;5.00;;;;;;;;;;4949899;28;20449;-63
2022/05/08 00:16:34;;;;;;;9.50;5.13;;;;;;;;;;4949654;28;20464;-63
2022/05/08 00:18:59;;;;;;;9.38;5.28;;;;;;;;;;4950724;28;20029;-64
2022/05/08 00:21:24;;;;;;;7.80;4.93;;;;;;;;;;4938518;28;20335;-63
2022/05/08 00:23:50;;;;;;;11.80;5.78;;;;;;;;;;4950083;28;20445;-64
2022/05/08 00:26:15;;;;;;;8.93;5.60;;;;;;;;;;4949813;28;20065;-63
2022/05/08 00:28:40;;;;;;;11.93;5.65;;;;;;;;;;4953320;28;20453;-63
2022/05/08 00:31:09;;;;;;;12.07;6.15;;;;;;;;;;4956798;28;20354;-64
2022/05/08 00:33:35;;;;;;;9.63;5.45;;;;;;;;;;4956004;28;20135;-63
2022/05/08 00:36:00;;;;;;;9.98;5.68;;;;;;;;;;4938546;28;20460;-63
2022/05/08 00:38:25;;;;;;;10.27;6.55;;;;;;;;;;4956909;28;20342;-63
2022/05/08 00:40:51;;;;;;;13.45;5.88;;;;;;;;;;4956051;28;20361;-63
2022/05/08 00:43:26;;;;;;;11.75;5.95;;;;;;;;;;4957104;28;20625;-64
2022/05/08 00:45:52;;;;;;;9.50;5.30;;;;;;;;;;4956193;28;20512;-64
2022/05/08 00:48:17;;;;;;;8.32;5.82;;;;;;;;;;4956297;28;20465;-63
2022/05/08 00:50:43;;;;;;;10.68;6.45;;;;;;;;;;4957175;28;20401;-64
2022/05/08 00:53:08;;;;;;;10.68;5.90;;;;;;;;;;4956032;28;20060;-63
2022/05/08 00:55:34;;;;;;;9.65;6.28;;;;;;;;;;4956674;28;20388;-64
2022/05/08 00:58:00;;;;;;;9.82;6.15;;;;;;;;;;4955807;28;20456;-63
2022/05/08 01:00:25;;;;;;;11.68;5.97;;;;;;;;;;4937314;28;20544;-63
2022/05/08 01:02:51;;;;;;;10.05;6.13;;;;;;;;;;4956122;28;20485;-63
2022/05/08 01:05:16;;;;;;;9.82;6.20;;;;;;;;;;4956727;28;20418;-64
2022/05/08 01:07:41;;;;;;;9.25;5.78;;;;;;;;;;4956042;28;20468;-63
2022/05/08 01:10:07;;;;;;;10.50;5.97;;;;;;;;;;4955755;28;20410;-64
2022/05/08 01:12:32;;;;;;;11.43;6.10;;;;;;;;;;4956049;28;20504;-64
2022/05/08 01:15:14;;;;;;;12.93;6.30;;;;;;;;;;4955565;28;20468;-63
2022/05/08 01:17:39;;;;;;;9.93;5.57;;;;;;;;;;4957088;28;20398;-64
2022/05/08 01:20:06;;;;;;;11.02;5.90;;;;;;;;;;4955933;28;20307;-65
2022/05/08 01:22:33;;;;;;;11.00;6.03;;;;;;;;;;4955489;28;20445;-64
2022/05/08 01:24:59;;;;;;;10.73;6.43;;;;;;;;;;4957521;28;20416;-63
2022/05/08 01:27:25;;;;;;;10.45;6.00;;;;;;;;;;4956071;28;20046;-63
2022/05/08 01:29:50;;;;;;;12.60;6.95;;;;;;;;;;4955807;28;20461;-65
2022/05/08 01:32:15;;;;;;;12.68;6.25;;;;;;;;;;4955748;28;20357;-63
2022/05/08 01:34:41;;;;;;;10.52;6.00;;;;;;;;;;4955663;28;20425;-63
2022/05/08 01:37:06;;;;;;;11.98;6.75;;;;;;;;;;4955455;28;20521;-65
2022/05/08 01:39:31;;;;;;;9.85;6.18;;;;;;;;;;4953681;28;20449;-63
2022/05/08 01:41:57;;;;;;;10.77;6.22;;;;;;;;;;4952028;28;20402;-63
2022/05/08 01:44:24;;;;;;;11.88;6.10;;;;;;;;;;4952645;28;20419;-63
2022/05/08 01:48:21;;;;;;;10.57;6.57;;;;;;;;;;4952549;28;20369;-63
2022/05/08 01:49:34;;;;;;;11.27;6.32;;;;;;;;;;4952244;28;20061;-63
2022/05/08 01:51:59;;;;;;;17.50;7.80;;;;;;;;;;4952854;28;20429;-63
2022/05/08 01:54:25;;;;;;;12.63;6.93;;;;;;;;;;4952688;28;20472;-63
2022/05/08 01:56:51;;;;;;;12.88;6.85;;;;;;;;;;4952453;28;20120;-64
2022/05/08 01:59:16;;;;;;;11.52;6.22;;;;;;;;;;4952258;28;20381;-64
2022/05/08 02:01:43;;;;;;;10.48;6.32;;;;;;;;;;4952032;28;20038;-63
2022/05/08 02:04:15;;;;;;;11.20;6.35;;;;;;;;;;4952733;28;20033;-64
2022/05/08 02:06:40;;;;;;;13.02;6.72;;;;;;;;;;4951752;28;20033;-64
2022/05/08 02:09:05;;;;;;;10.85;6.03;;;;;;;;;;4952100;28;20062;-63
2022/05/08 02:11:31;;;;;;;9.68;6.10;;;;;;;;;;4953142;28;20176;-63
2022/05/08 02:13:56;;;;;;;11.93;6.80;;;;;;;;;;4951654;28;20372;-63
2022/05/08 02:16:22;;;;;;;12.85;6.93;;;;;;;;;;4951517;28;20384;-63
2022/05/08 02:18:47;;;;;;;9.20;5.75;;;;;;;;;;4951690;28;20136;-63
2022/05/08 02:21:12;;;;;;;9.20;6.65;;;;;;;;;;4951543;28;20429;-63
2022/05/08 02:23:37;;;;;;;8.52;5.72;;;;;;;;;;4952043;28;20033;-63
2022/05/08 02:26:03;;;;;;;9.00;6.25;;;;;;;;;;4950873;28;20568;-63
2022/05/08 02:28:28;;;;;;;10.93;6.75;;;;;;;;;;4953015;28;20481;-63
2022/05/08 02:30:53;;;;;;;12.27;6.93;;;;;;;;;;4951614;28;20350;-63
2022/05/08 02:33:19;;;;;;;11.95;6.72;;;;;;;;;;4951465;28;20100;-64
2022/05/08 02:35:44;;;;;;;11.95;6.72;;;;;;;;;;4951961;28;20453;-64
2022/05/08 02:38:10;;;;;;;10.77;6.35;;;;;;;;;;4951780;28;20457;-63
2022/05/08 02:40:35;;;;;;;11.90;6.43;;;;;;;;;;4951477;28;20322;-63
2022/05/08 02:43:00;;;;;;;11.02;6.35;;;;;;;;;;4953210;28;20057;-65
2022/05/08 02:45:26;;;;;;;10.90;6.25;;;;;;;;;;4950912;28;20125;-63
2022/05/08 02:47:51;;;;;;;12.55;6.82;;;;;;;;;;4952271;28;20192;-63
2022/05/08 02:50:17;;;;;;;11.40;6.45;;;;;;;;;;4951270;28;20512;-63
2022/05/08 02:52:42;;;;;;;9.75;5.72;;;;;;;;;;4950626;28;20352;-63
2022/05/08 03:00:38;;;;;;;13.25;5.65;;;;;;;;;;4951678;28;20208;-63
2022/05/08 03:03:05;;;;;;;10.38;6.22;;;;;;;;;;4952383;28;20034;-65
2022/05/08 03:05:31;;;;;;;10.48;6.20;;;;;;;;;;4950989;28;20416;-64
2022/05/08 03:07:56;;;;;;;12.25;6.75;;;;;;;;;;4951024;28;20424;-64
2022/05/08 03:10:22;;;;;;;10.38;6.43;;;;;;;;;;4951687;28;20033;-63
2022/05/08 03:12:47;;;;;;;9.63;6.03;;;;;;;;;;4951804;28;20453;-63
2022/05/08 03:15:12;;;;;;;10.85;6.13;;;;;;;;;;4950422;28;20599;-64
2022/05/08 03:17:38;;;;;;;8.20;5.72;;;;;;;;;;4950344;28;20515;-63
2022/05/08 03:20:03;;;;;;;10.90;7.15;;;;;;;;;;4950708;28;20022;-65
2022/05/08 03:22:28;;;;;;;9.57;6.28;;;;;;;;;;4950767;28;20426;-63
2022/05/08 03:24:54;;;;;;;13.85;6.78;;;;;;;;;;4950111;28;20097;-64
2022/05/08 03:27:20;;;;;;;9.82;6.72;;;;;;;;;;4933628;28;20530;-65
2022/05/08 03:29:45;;;;;;;10.70;6.25;;;;;;;;;;4951908;28;20341;-63
2022/05/08 03:32:10;;;;;;;11.25;6.78;;;;;;;;;;4951391;28;20341;-63
2022/05/08 03:34:36;;;;;;;9.90;5.93;;;;;;;;;;4950800;28;20034;-65
2022/05/08 03:37:02;;;;;;;11.88;6.72;;;;;;;;;;4950285;28;20149;-63
2022/05/08 03:39:28;;;;;;;10.68;6.95;;;;;;;;;;4949900;28;20485;-64
2022/05/08 03:41:53;;;;;;;9.00;5.75;;;;;;;;;;4950442;28;20448;-64
2022/05/08 03:44:18;;;;;;;9.65;6.15;;;;;;;;;;4950525;28;20453;-63
2022/05/08 03:46:44;;;;;;;11.07;6.45;;;;;;;;;;4951093;28;20345;-63
2022/05/08 03:49:09;;;;;;;12.32;5.95;;;;;;;;;;4951851;28;20070;-64
2022/05/08 03:51:34;;;;;;;13.32;7.18;;;;;;;;;;4949956;28;20057;-63
2022/05/08 03:54:01;;;;;;;9.65;6.20;;;;;;;;;;4950790;28;20420;-64
2022/05/08 03:56:28;;;;;;;11.38;6.18;;;;;;;;;;4950826;28;20426;-64
2022/05/08 03:58:53;;;;;;;10.07;5.70;;;;;;;;;;4950104;28;20487;-63
2022/05/08 04:01:18;;;;;;;9.93;5.97;;;;;;;;;;4950195;28;20504;-64
2022/05/08 04:03:44;;;;;;;10.70;6.28;;;;;;;;;;4949448;28;20437;-63
2022/05/08 04:06:09;;;;;;;9.32;6.53;;;;;;;;;;4950862;28;20448;-66
2022/05/08 04:08:34;;;;;;;10.40;6.25;;;;;;;;;;4950315;28;20341;-65
2022/05/08 04:11:00;;;;;;;11.65;6.35;;;;;;;;;;4950686;28;20394;-64
2022/05/08 04:13:25;;;;;;;10.15;6.45;;;;;;;;;;4951129;28;20544;-64
2022/05/08 04:18:46;;;;;;;9.63;6.10;;;;;;;;;;4928715;28;20460;-63
2022/05/08 04:21:11;;;;;;;9.90;6.35;;;;;;;;;;4950123;28;20645;-63
2022/05/08 04:26:22;;;;;;;10.77;6.18;;;;;;;;;;4949954;28;20069;-63
2022/05/08 04:28:47;;;;;;;9.43;6.18;;;;;;;;;;4950148;28;20460;-63
2022/05/08 04:31:13;;;;;;;10.57;6.50;;;;;;;;;;4949261;28;20436;-63
2022/05/08 04:33:38;;;;;;;9.38;6.13;;;;;;;;;;4949837;28;20508;-64
2022/05/08 04:36:03;;;;;;;11.07;6.55;;;;;;;;;;4949342;28;20516;-63
2022/05/08 04:38:29;;;;;;;8.77;5.80;;;;;;;;;;4950343;28;20414;-63
2022/05/08 04:40:54;;;;;;;12.18;6.70;;;;;;;;;;4950140;28;20536;-63
2022/05/08 04:43:19;;;;;;;8.45;5.00;;;;;;;;;;4949424;28;20458;-63
2022/05/08 04:45:45;;;;;;;11.65;6.30;;;;;;;;;;4950847;28;20345;-65
2022/05/08 04:48:10;;;;;;;8.95;5.40;;;;;;;;;;4949382;28;20485;-63
2022/05/08 04:50:35;;;;;;;9.68;6.55;;;;;;;;;;4949492;28;20484;-64
2022/05/08 04:53:01;;;;;;;8.18;5.40;;;;;;;;;;4949392;28;20648;-64
2022/05/08 04:55:26;;;;;;;13.52;5.75;;;;;;;;;;4950547;28;20556;-63
2022/05/08 04:57:51;;;;;;;10.73;6.13;;;;;;;;;;4949879;28;20345;-65
2022/05/08 05:00:17;;;;;;;8.45;5.53;;;;;;;;;;4949538;28;20385;-64
2022/05/08 05:02:44;;;;;;;10.73;5.97;;;;;;;;;;4949304;28;20434;-63
2022/05/08 05:05:09;;;;;;;9.07;5.85;;;;;;;;;;4949607;28;20337;-63
2022/05/08 05:07:35;;;;;;;8.57;6.00;;;;;;;;;;4949357;28;20326;-64
2022/05/08 05:10:00;;;;;;;10.02;5.65;;;;;;;;;;4950247;28;20350;-63
2022/05/08 05:12:25;;;;;;;9.93;5.95;;;;;;;;;;4950202;28;20353;-64
2022/05/08 05:14:51;;;;;;;10.32;5.68;;;;;;;;;;4950514;28;20441;-65
2022/05/08 05:17:16;;;;;;;9.45;6.07;;;;;;;;;;4953704;28;20452;-63
2022/05/08 05:19:42;;;;;;;9.60;6.07;;;;;;;;;;4954059;28;20030;-64
2022/05/08 05:22:08;;;;;;;9.98;6.15;;;;;;;;;;4952587;28;20052;-64
2022/05/08 05:24:33;;;;;;;9.85;6.50;;;;;;;;;;4953329;28;20411;-64
2022/05/08 05:26:59;;;;;;;8.38;5.40;;;;;;;;;;4952893;28;20722;-63
2022/05/08 05:29:24;;;;;;;9.55;5.70;;;;;;;;;;4953209;28;20376;-64
2022/05/08 05:31:49;;;;;;;8.95;5.80;;;;;;;;;;4954311;28;20349;-63
2022/05/08 05:34:14;;;;;;;9.57;6.10;;;;;;;;;;4952775;28;20104;-64
2022/05/08 05:36:40;;;;;;;8.50;5.20;;;;;;;;;;4952602;28;20511;-63
2022/05/08 05:39:05;;;;;;;8.43;5.30;;;;;;;;;;4953016;28;20482;-63
2022/05/08 05:41:31;;;;;;;9.98;4.93;;;;;;;;;;4952288;28;20129;-65
2022/05/08 05:43:57;;;;;;;9.98;5.70;;;;;;;;;;4952437;28;20345;-64
2022/05/08 05:49:06;;;;;;;10.52;6.30;;;;;;;;;;4954937;28;20392;-63
2022/05/08 05:51:32;;;;;;;8.27;5.55;;;;;;;;;;4952826;28;20061;-64
2022/05/08 05:53:57;;;;;;;9.15;5.85;;;;;;;;;;4951784;28;20446;-63
2022/05/08 05:56:22;;;;;;;15.75;6.75;;;;;;;;;;4952542;28;20334;-63
2022/05/08 05:58:48;;;;;;;10.30;5.97;;;;;;;;;;4952515;28;20500;-65
2022/05/08 06:01:13;;;;;;;12.57;6.07;;;;;;;;;;4952067;28;20053;-63
2022/05/08 06:03:38;;;;;;;9.00;5.55;;;;;;;;;;4952276;28;20480;-64
2022/05/08 06:06:04;;;;;;;10.15;6.40;;;;;;;;;;4952289;28;20441;-63
2022/05/08 06:08:29;;;;;;;10.50;5.78;;;;;;;;;;4952055;28;20393;-63
2022/05/08 06:10:54;;;;;;;9.40;6.28;;;;;;;;;;4953020;28;20140;-64
2022/05/08 06:13:21;;;;;;;10.27;6.05;;;;;;;;;;4952029;28;20433;-63
2022/05/08 06:15:47;;;;;;;10.15;6.80;;;;;;;;;;4951610;28;20433;-63
2022/05/08 06:18:12;;;;;;;8.70;6.32;;;;;;;;;;4952062;28;20437;-63
2022/05/08 06:20:38;;;;;;;9.98;6.13;;;;;;;;;;4951879;28;20525;-64
2022/05/08 06:23:03;;;;;;;9.90;6.18;;;;;;;;;;4951794;28;20310;-64
2022/05/08 06:25:29;;;;;;;11.85;6.18;;;;;;;;;;4951428;28;20400;-63
2022/05/08 06:27:54;;;;;;;8.35;5.97;;;;;;;;;;4950834;28;20084;-63
2022/05/08 06:30:19;;;;;;;9.50;6.30;;;;;;;;;;4951926;28;20373;-63
2022/05/08 06:32:45;;;;;;;15.18;5.93;;;;;;;;;;4951487;28;20389;-63
2022/05/08 06:35:10;;;;;;;9.70;6.18;;;;;;;;;;4952984;28;20361;-64
2022/05/08 06:37:35;;;;;;;8.18;6.10;;;;;;;;;;4952567;28;20333;-63
2022/05/08 06:40:01;;;;;;;10.50;5.97;;;;;;;;;;4951223;28;20418;-64
2022/05/08 06:42:26;;;;;;;7.00;4.95;;;;;;;;;;4952945;28;20052;-63
2022/05/08 06:44:51;;;;;;;9.57;5.43;;;;;;;;;;4951247;28;20337;-64
2022/05/08 06:47:17;;;;;;;10.35;5.75;;;;;;;;;;4952238;28;20372;-64
2022/05/08 06:49:42;;;;;;;8.20;5.28;;;;;;;;;;4951301;28;20129;-63
2022/05/08 06:52:07;;;;;;;9.95;5.35;;;;;;;;;;4951316;28;20535;-64
2022/05/08 06:54:33;;;;;;;8.77;5.32;;;;;;;;;;4951275;28;20408;-63
2022/05/08 06:56:59;;;;;;;10.55;5.78;;;;;;;;;;4952470;28;20405;-63
2022/05/08 07:02:10;;;;;;;7.75;5.78;;;;;;;;;;4951507;28;20361;-63
2022/05/08 07:04:35;;;;;;;8.50;5.13;;;;;;;;;;4951295;28;20440;-63
2022/05/08 07:07:01;;;;;;;7.38;5.20;;;;;;;;;;4951223;28;20425;-63
2022/05/08 07:09:26;;;;;;;8.52;4.90;;;;;;;;;;4950417;28;20414;-64
2022/05/08 07:11:52;;;;;;;9.95;5.63;;;;;;;;;;4951026;28;20508;-64
2022/05/08 07:14:17;;;;;;;9.05;6.13;;;;;;;;;;4950681;28;20369;-64
2022/05/08 07:16:43;;;;;;;8.98;5.43;;;;;;;;;;4950968;28;20357;-63
2022/05/08 07:19:08;;;;;;;8.98;5.88;;;;;;;;;;4950581;28;20446;-63
2022/05/08 07:21:34;;;;;;;8.32;5.28;;;;;;;;;;4950627;28;20441;-64
2022/05/08 07:23:59;;;;;;;9.35;5.35;;;;;;;;;;4951093;28;20349;-65
2022/05/08 07:26:24;;;;;;;10.27;5.82;;;;;;;;;;4950494;28;20682;-64
2022/05/08 07:28:50;;;;;;;8.85;5.60;;;;;;;;;;4950646;28;20120;-64
2022/05/08 07:31:16;;;;;;;7.25;5.32;;;;;;;;;;4952222;28;20437;-63
2022/05/08 07:33:41;;;;;;;9.05;6.10;;;;;;;;;;4950263;28;20029;-63
2022/05/08 07:36:13;;;;;;;8.55;5.18;;;;;;;;;;4950104;28;20076;-63
2022/05/08 07:38:47;;;;;;;7.30;4.95;;;;;;;;;;4949154;28;20353;-64
2022/05/08 07:41:17;;;;;;;7.65;4.75;;;;;;;;;;4950436;28;20326;-64
2022/05/08 07:43:44;;;;;;;10.57;5.63;;;;;;;;;;4950305;28;20467;-63
2022/05/08 07:46:10;;;;;;;7.20;5.15;;;;;;;;;;4950153;28;20491;-62
2022/05/08 07:48:35;;;;;;;9.32;5.32;;;;;;;;;;4950159;28;20473;-63
2022/05/08 07:51:02;;;;;;;7.93;4.85;;;;;;;;;;4950618;28;20398;-63
2022/05/08 07:53:28;;;;;;;7.85;5.30;;;;;;;;;;4950299;28;20307;-63
2022/05/08 07:55:53;;;;;;;12.13;5.38;;;;;;;;;;4950403;28;20512;-64
2022/05/08 07:58:20;;;;;;;8.07;5.13;;;;;;;;;;4950311;28;20540;-63
2022/05/08 08:00:45;;;;;;;9.90;5.43;;;;;;;;;;4949577;28;20445;-63
2022/05/08 08:03:11;;;;;;;7.65;4.85;;;;;;;;;;4949410;28;20495;-63
2022/05/08 08:05:36;;;;;;;8.27;5.25;;;;;;;;;;4949738;28;20029;-64
2022/05/08 08:08:02;;;;;;;6.65;4.55;;;;;;;;;;4950182;28;20457;-63
2022/05/08 08:10:29;;;;;;;8.13;4.90;;;;;;;;;;4932422;28;20401;-63
2022/05/08 08:12:55;;;;;;;9.55;4.85;;;;;;;;;;4951080;28;20460;-63
2022/05/08 08:15:36;;;;;;;7.30;4.59;;;;;;;;;;3217932;28;10003901;-64
2022/05/08 08:18:02;;;;;;;7.55;5.22;;;;;;;;;;4002021;28;10001042;-63
2022/05/08 08:20:28;;;;;;;8.77;4.85;;;;;;;;;;4949784;28;20482;-64
2022/05/08 08:22:53;;;;;;;8.23;4.60;;;;;;;;;;4950323;28;20030;-63
2022/05/08 08:25:20;;;;;;;7.97;4.97;;;;;;;;;;4950571;28;20412;-63
2022/05/08 08:27:45;;;;;;;8.65;4.28;;;;;;;;;;4949832;28;20327;-63
2022/05/08 08:30:11;;;;;;;8.18;4.47;;;;;;;;;;4932034;28;20327;-63
2022/05/08 08:32:36;;;;;;;6.32;4.60;;;;;;;;;;4949169;28;20022;-64
2022/05/08 08:35:02;;;;;;;9.30;5.10;;;;;;;;;;4951400;28;20381;-63
2022/05/08 08:37:27;;;;;;;7.43;4.00;;;;;;;;;;4949475;28;20454;-63
2022/05/08 08:39:52;;;;;;;8.40;4.95;;;;;;;;;;4949269;28;20385;-63
2022/05/08 08:42:28;;;;;;;6.45;4.38;;;;;;;;;;4949765;28;20468;-63
2022/05/08 08:48:05;;;;;;;9.18;4.50;;;;;;;;;;4951010;28;20471;-63
2022/05/08 08:50:32;;;;;;;7.50;4.53;;;;;;;;;;4952074;28;20022;-63
2022/05/08 08:52:59;;;;;;;7.40;4.15;;;;;;;;;;4954013;28;20325;-63
2022/05/08 08:55:24;;;;;;;7.47;3.97;;;;;;;;;;4953242;28;20326;-62
2022/05/08 08:57:50;;;;;;;8.13;4.63;;;;;;;;;;4953233;28;20333;-64
2022/05/08 09:00:17;;;;;;;5.78;3.88;;;;;;;;;;4955332;28;20419;-64
2022/05/08 09:02:43;;;;;;;6.45;4.20;;;;;;;;;;4953740;28;20365;-63
2022/05/08 09:05:09;;;;;;;7.53;4.43;;;;;;;;;;4953904;28;20026;-63
2022/05/08 09:07:42;;;;;;;7.25;4.03;;;;;;;;;;4953417;28;20436;-62
2022/05/08 09:10:13;;;;;;;5.53;3.70;;;;;;;;;;4952977;28;20484;-64
2022/05/08 09:12:45;;;;;;;4.88;3.83;;;;;;;;;;4953235;28;20029;-63
2022/05/08 09:15:20;;;;;;;8.10;4.28;;;;;;;;;;4952458;28;20453;-63
2022/05/08 09:17:47;;;;;;;6.43;4.18;;;;;;;;;;4953043;28;20349;-63
2022/05/08 09:20:41;;;;;;;5.72;3.97;;;;;;;;;;4952999;28;20381;-62
2022/05/08 09:23:13;;;;;;;7.95;4.45;;;;;;;;;;4952705;28;20433;-63
2022/05/08 09:25:43;;;;;;;6.68;4.07;;;;;;;;;;4953039;28;20393;-63
2022/05/08 09:28:13;;;;;;;6.53;4.13;;;;;;;;;;4935373;28;20413;-63
2022/05/08 09:30:55;;;;;;;6.00;4.38;;;;;;;;;;4953505;28;20381;-64
2022/05/08 09:33:22;;;;;;;6.82;4.38;;;;;;;;;;4953016;28;20454;-63
2022/05/08 09:35:48;;;;;;;5.13;3.83;;;;;;;;;;4952709;28;20444;-63
2022/05/08 09:38:13;;;;;;;4.60;3.25;;;;;;;;;;4953290;28;20448;-63
2022/05/08 09:40:38;;;;;;;6.10;3.85;;;;;;;;;;4952500;28;20511;-62
2022/05/08 09:43:04;;;;;;;5.35;3.70;;;;;;;;;;4952343;28;20504;-63
2022/05/08 09:45:29;;;;;;;5.78;3.90;;;;;;;;;;4953748;28;20053;-63
2022/05/08 09:47:57;;;;;;;6.68;3.72;;;;;;;;;;4935647;28;20413;-63
2022/05/08 09:50:22;;;;;;;5.85;3.85;;;;;;;;;;4952176;28;20535;-63
2022/05/08 09:52:47;;;;;;;6.90;3.67;;;;;;;;;;4952961;28;20401;-63
2022/05/08 09:55:14;;;;;;;4.95;3.80;;;;;;;;;;4951881;28;20437;-63
2022/05/08 09:57:39;;;;;;;5.05;3.75;;;;;;;;;;4952262;28;20346;-63
2022/05/08 10:00:07;;;;;;;7.60;4.07;;;;;;;;;;4952367;28;20077;-63
2022/05/08 10:02:32;;;;;;;6.80;3.80;;;;;;;;;;4951866;28;20405;-63
2022/05/08 10:04:58;;;;;;;6.70;4.03;;;;;;;;;;4952659;28;20342;-63
2022/05/08 10:07:23;;;;;;;5.07;3.55;;;;;;;;;;4953379;28;20524;-63
2022/05/08 10:15:30;;;;;;;5.13;3.75;;;;;;;;;;4952986;28;20105;-63
2022/05/08 10:18:23;;;;;;;5.65;3.65;;;;;;;;;;4952240;28;20446;-63
2022/05/08 10:21:12;;;;;;;4.75;3.53;;;;;;;;;;4951945;28;20433;-63
2022/05/08 10:23:41;;;;;;;6.70;3.58;;;;;;;;;;4952490;28;20426;-62
2022/05/08 10:26:16;;;;;;;5.97;3.50;;;;;;;;;;4951964;28;20442;-63
2022/05/08 10:29:03;;;;;;;5.28;3.40;;;;;;;;;;4951520;28;20529;-62
2022/05/08 10:31:48;;;;;;;5.15;3.47;;;;;;;;;;4953682;28;20045;-63
2022/05/08 10:34:15;;;;;;;5.30;3.63;;;;;;;;;;4952224;28;20468;-63
2022/05/08 10:37:12;;;;;;;5.00;3.55;;;;;;;;;;4953228;28;20030;-63
2022/05/08 10:39:43;;;;;;;5.60;3.70;;;;;;;;;;4951853;28;20330;-63
2022/05/08 10:42:29;;;;;;;4.90;3.63;;;;;;;;;;4951144;28;20466;-63
2022/05/08 10:44:57;;;;;;;3.92;3.05;;;;;;;;;;4943945;28;20469;-63
2022/05/08 10:47:32;;;;;;;4.13;3.05;;;;;;;;;;4951349;28;20469;-63
2022/05/08 10:49:58;;;;;;;5.05;3.25;;;;;;;;;;4951728;28;20364;-64
2022/05/08 10:52:23;;;;;;;4.15;3.05;;;;;;;;;;4952186;28;20333;-64
2022/05/08 10:55:03;;;;;;;5.85;3.67;;;;;;;;;;4950849;28;20335;-64
2022/05/08 10:57:29;;;;;;;4.85;3.33;;;;;;;;;;4952208;28;20342;-64
2022/05/08 10:59:54;;;;;;;4.45;3.15;;;;;;;;;;4950750;28;20517;-63
2022/05/08 11:02:47;;;;;;;4.65;3.63;;;;;;;;;;4950726;28;20470;-63
2022/05/08 11:05:17;;;;;;;4.18;2.72;;;;;;;;;;4950718;28;20491;-64
2022/05/08 11:08:10;;;;;;;6.28;3.15;;;;;;;;;;4950311;28;20049;-64
2022/05/08 11:10:40;;;;;;;4.47;3.15;;;;;;;;;;4951009;28;20405;-63
2022/05/08 11:13:18;;;;;;;8.27;3.10;;;;;;;;;;4950478;28;20048;-64
2022/05/08 11:15:44;;;;;;;4.75;3.15;;;;;;;;;;4950380;28;20388;-64
2022/05/08 11:18:15;;;;;;;8.00;3.33;;;;;;;;;;4951270;28;20322;-63
2022/05/08 11:20:45;;;;;;;4.32;2.50;;;;;;;;;;4950831;28;20265;-63
2022/05/08 11:23:12;;;;;;;4.82;2.85;;;;;;;;;;4950801;28;20061;-64
2022/05/08 11:25:38;;;;;;;3.88;2.65;;;;;;;;;;4950816;28;20489;-63
2022/05/08 11:28:03;;;;;;;5.32;3.00;;;;;;;;;;4932842;28;20440;-63
2022/05/08 11:30:38;;;;;;;4.75;3.05;;;;;;;;;;4951738;28;20443;-63
2022/05/08 11:36:04;;;;;;;4.85;2.80;;;;;;;;;;4951349;28;20056;-64
2022/05/08 11:39:03;;;;;;;4.25;2.83;;;;;;;;;;4950616;28;20034;-63
2022/05/08 11:41:36;;;;;;;4.57;2.55;;;;;;;;;;4950956;28;20033;-63
2022/05/08 11:44:24;;;;;;;4.18;2.47;;;;;;;;;;4950548;28;20457;-64
2022/05/08 11:46:55;;;;;;;4.50;2.60;;;;;;;;;;4951455;28;20034;-63
2022/05/08 11:49:21;;;;;;;3.65;2.53;;;;;;;;;;4933075;28;20428;-64
2022/05/08 11:52:07;;;;;;;3.70;2.35;;;;;;;;;;4950673;28;20389;-63
2022/05/08 11:54:35;;;;;;;3.22;2.67;;;;;;;;;;4945832;28;20448;-63
2022/05/08 11:57:19;;;;;;;4.00;2.55;;;;;;;;;;4950349;28;20409;-64
2022/05/08 11:59:47;;;;;;;3.40;2.38;;;;;;;;;;4950211;28;20488;-63
2022/05/08 12:02:13;;;;;;;5.18;2.47;;;;;;;;;;4951173;28;20340;-64
2022/05/08 12:04:38;;;;;;;3.53;2.72;;;;;;;;;;4950743;28;20341;-62
2022/05/08 12:07:13;;;;;;;5.07;2.83;;;;;;;;;;4949728;28;20026;-63
2022/05/08 12:09:44;;;;;;;3.33;2.22;;;;;;;;;;4950718;28;20424;-63
2022/05/08 12:12:27;;;;;;;3.53;2.63;;;;;;;;;;4949975;28;20398;-63
2022/05/08 12:14:59;;;;;;;3.65;2.35;;;;;;;;;;4949469;28;20372;-63
2022/05/08 12:17:24;;;;;;;4.90;2.85;;;;;;;;;;4949908;28;20495;-63
2022/05/08 12:19:52;;;;;;;2.80;2.08;;;;;;;;;;4949501;28;20481;-63
2022/05/08 12:22:19;;;;;;;4.28;2.50;;;;;;;;;;4951576;28;20560;-64
2022/05/08 12:24:44;;;;;;;4.30;2.95;;;;;;;;;;4949109;28;20436;-63
2022/05/08 12:27:10;;;;;;;4.28;2.70;;;;;;;;;;4949911;28;20406;-64
2022/05/08 12:29:35;;;;;;;3.55;2.20;;;;;;;;;;4950830;28;20396;-63
2022/05/08 12:32:00;;;;;;;3.40;2.20;;;;;;;;;;4949730;28;20437;-63
2022/05/08 12:34:27;;;;;;;2.67;2.08;;;;;;;;;;4949518;28;20421;-63
2022/05/08 12:36:52;;;;;;;2.92;2.15;;;;;;;;;;4949407;28;20753;-63
2022/05/08 12:39:19;;;;;;;2.80;2.00;;;;;;;;;;4931814;28;20392;-64
2022/05/08 12:41:45;;;;;;;3.22;2.25;;;;;;;;;;4949490;28;20454;-63
2022/05/08 12:44:10;;;;;;;3.00;2.13;;;;;;;;;;4949447;28;20437;-63
2022/05/08 12:46:35;;;;;;;3.47;1.92;;;;;;;;;;4950167;28;20461;-63
2022/05/08 12:49:04;;;;;;;3.10;1.90;;;;;;;;;;4949733;28;20400;-63
2022/05/08 12:51:30;;;;;;;;;;;;;;;;;;4949636;28;20413;-64
2022/05/08 12:53:56;;;;;;;3.95;2.15;;;;;;;;;;4949651;28;20331;-63
2022/05/08 12:56:21;;;;;;;3.10;2.33;;;;;;;;;;4931391;28;20437;-62
2022/05/08 13:01:30;;;;;;;3.35;2.53;;;;;;;;;;4949485;28;20385;-63
2022/05/08 13:03:56;;;;;;;3.00;2.08;;;;;;;;;;4949307;28;20397;-63
2022/05/08 13:06:21;;;;;;;3.47;2.42;;;;;;;;;;4949034;28;20557;-64
2022/05/08 13:08:46;;;;;;;4.03;2.25;;;;;;;;;;4950050;28;20091;-63
2022/05/08 13:11:12;;;;;;;3.65;2.25;;;;;;;;;;4949409;28;20465;-63
2022/05/08 13:13:37;;;;;;;3.42;2.30;;;;;;;;;;4950056;28;20375;-63
2022/05/08 13:16:04;;;;;;;4.55;1.95;;;;;;;;;;4931782;28;20450;-63
2022/05/08 13:18:30;;;;;;;4.13;2.55;;;;;;;;;;4949417;28;20061;-63
2022/05/08 13:20:55;;;;;;;3.72;2.30;;;;;;;;;;4949251;28;20468;-63
2022/05/08 13:23:20;;;;;;;2.95;2.17;;;;;;;;;;4949471;28;20433;-63
2022/05/08 13:25:46;;;;;;;2.63;1.90;;;;;;;;;;4949047;28;20577;-65
2022/05/08 13:28:11;;;;;;;2.97;2.00;;;;;;;;;;4949410;28;20381;-62
2022/05/08 13:30:37;;;;;;;4.40;2.10;;;;;;;;;;4948959;28;20377;-63
2022/05/08 13:33:02;;;;;;;2.80;1.90;;;;;;;;;;4949182;28;20511;-63
2022/05/08 13:35:28;;;;;;;2.80;2.05;;;;;;;;;;4951385;28;20056;-63
2022/05/08 13:37:53;;;;;;;3.30;2.00;;;;;;;;;;4952383;28;20370;-63
2022/05/08 13:40:18;;;;;;;4.55;2.28;;;;;;;;;;4952761;28;20400;-63
2022/05/08 13:42:44;;;;;;;2.70;2.08;;;;;;;;;;4952674;28;20091;-63
2022/05/08 13:45:09;;;;;;;2.63;1.83;;;;;;;;;;4953455;28;20746;-63
2022/05/08 13:47:35;;;;;;;2.72;1.80;;;;;;;;;;4952578;28;20567;-63
2022/05/08 13:50:03;;;;;;;2.30;1.83;;;;;;;;;;4952591;28;20341;-64
2022/05/08 13:52:30;;;;;;;2.58;1.83;;;;;;;;;;4953736;28;20401;-63
2022/05/08 13:54:55;;;;;;;3.28;2.08;;;;;;;;;;4952123;28;20397;-62
2022/05/08 13:57:20;;;;;;;3.05;2.00;;;;;;;;;;4950814;28;20348;-63
2022/05/08 13:59:46;;;;;;;3.95;2.40;;;;;;;;;;4952258;28;20429;-63
2022/05/08 14:02:13;;;;;;;3.92;2.28;;;;;;;;;;4953361;28;20056;-64
2022/05/08 14:04:39;;;;;;;3.13;1.90;;;;;;;;;;4952223;28;20473;-64
2022/05/08 14:07:04;;;;;;;3.25;2.25;;;;;;;;;;4951890;28;20404;-63
2022/05/08 14:09:30;;;;;;;3.78;2.22;;;;;;;;;;4952212;28;20418;-64
2022/05/08 14:11:55;;;;;;;2.90;2.08;;;;;;;;;;4952059;28;20315;-63
2022/05/08 14:14:25;;;;;;;2.22;1.92;;;;;;;;;;4952280;28;20539;-63
2022/05/08 14:16:51;;;;;;;3.03;1.85;;;;;;;;;;4951371;28;20133;-63
2022/05/08 14:19:16;;;;;;;2.10;1.88;;;;;;;;;;4952466;28;20441;-64
2022/05/08 14:21:41;;;;;;;3.10;2.13;;;;;;;;;;4951665;28;20038;-63
2022/05/08 14:24:07;;;;;;;2.13;1.65;;;;;;;;;;4951536;28;20044;-63
2022/05/08 14:26:32;;;;;;;2.88;1.80;;;;;;;;;;4951576;28;20460;-64
2022/05/08 14:28:57;;;;;;;3.22;2.00;;;;;;;;;;4951481;28;20322;-63
2022/05/08 14:36:51;;;;;;;2.90;2.05;;;;;;;;;;4951729;28;20057;-63
2022/05/08 14:39:16;;;;;;;3.08;1.80;;;;;;;;;;4951725;28;20025;-63
2022/05/08 14:41:41;;;;;;;3.47;2.13;;;;;;;;;;4952000;28;20373;-62
2022/05/08 14:44:07;;;;;;;2.83;1.85;;;;;;;;;;4952214;28;20357;-62
2022/05/08 14:46:32;;;;;;;2.88;1.77;;;;;;;;;;4952108;28;20430;-62
2022/05/08 14:48:58;;;;;;;3.55;2.10;;;;;;;;;;4950608;28;20310;-63
2022/05/08 14:51:23;;;;;;;2.63;1.90;;;;;;;;;;4951392;28;20318;-64
2022/05/08 14:53:52;;;;;;;2.63;2.00;;;;;;;;;;4949765;28;20337;-63
2022/05/08 14:56:17;;;;;;;2.63;1.88;;;;;;;;;;4951922;28;20464;-62
2022/05/08 14:58:44;;;;;;;3.13;1.95;;;;;;;;;;4951054;28;20453;-64
2022/05/08 15:01:12;;;;;;;2.67;2.00;;;;;;;;;;4951099;28;20321;-63
2022/05/08 15:03:37;;;;;;;3.47;1.92;;;;;;;;;;4933901;28;20354;-63
2022/05/08 15:06:04;;;;;;;2.83;2.03;;;;;;;;;;4949026;28;20144;-64
2022/05/08 15:08:29;;;;;;;3.05;2.15;;;;;;;;;;4950815;28;20389;-63
2022/05/08 15:10:54;;;;;;;4.03;1.88;;;;;;;;;;4950369;28;20365;-63
2022/05/08 15:13:20;;;;;;;2.83;2.00;;;;;;;;;;4949789;28;20120;-64
2022/05/08 15:15:45;;;;;;;3.50;2.45;;;;;;;;;;4948828;28;20504;-64
2022/05/08 15:20:55;;;;;;;2.53;1.75;;;;;;;;;;4950839;28;20361;-63